createdAt,value
2023-03-16T00:00:30.609Z,92937.00
2023-03-16T00:01:30.666Z,92935.00
2023-03-16T00:02:30.737Z,92937.00
2023-03-16T00:03:30.934Z,92937.00
2023-03-16T00:04:30.861Z,92935.00
2023-03-16T00:05:30.916Z,92935.00
2023-03-16T00:06:30.971Z,92935.00
2023-03-16T00:07:31.035Z,92935.00
2023-03-16T00:08:31.076Z,92935.00
2023-03-16T00:09:31.360Z,92935.00
2023-03-16T00:10:31.188Z,92933.00
2023-03-16T00:11:31.266Z,92931.00
2023-03-16T00:12:31.308Z,92929.00
2023-03-16T00:13:31.341Z,92933.00
2023-03-16T00:14:31.414Z,92933.00
2023-03-16T00:15:31.441Z,92931.00
2023-03-16T00:16:31.678Z,92935.00
2023-03-16T00:17:31.582Z,92933.00
2023-03-16T00:18:31.629Z,92935.00
2023-03-16T00:19:31.661Z,92937.00
2023-03-16T00:20:31.717Z,92935.00
2023-03-16T00:21:31.771Z,92937.00
2023-03-16T00:22:31.824Z,92939.00
2023-03-16T00:23:31.875Z,92939.00
2023-03-16T00:24:31.946Z,92939.00
2023-03-16T00:25:31.986Z,92943.00
2023-03-16T00:26:32.038Z,92939.00
2023-03-16T00:27:32.097Z,92941.00
2023-03-16T00:28:32.131Z,92939.00
2023-03-16T00:29:32.194Z,92945.00
2023-03-16T00:30:32.267Z,92943.00
2023-03-16T00:31:32.381Z,92941.00
2023-03-16T00:32:32.467Z,92937.00
2023-03-16T00:33:32.448Z,92935.00
2023-03-16T00:34:32.512Z,92937.00
2023-03-16T00:35:32.635Z,92939.00
2023-03-16T00:36:32.687Z,92937.00
2023-03-16T00:37:32.873Z,92941.00
2023-03-16T00:38:32.811Z,92941.00
2023-03-16T00:39:32.856Z,92941.00
2023-03-16T00:40:32.919Z,92941.00
2023-03-16T00:41:32.968Z,92943.00
2023-03-16T00:42:33.028Z,92941.00
2023-03-16T00:43:33.085Z,92943.00
2023-03-16T00:44:33.148Z,92941.00
2023-03-16T00:45:33.227Z,92939.00
2023-03-16T00:46:33.268Z,92939.00
2023-03-16T00:47:33.300Z,92941.00
2023-03-16T00:48:33.390Z,92943.00
2023-03-16T00:49:33.446Z,92943.00
2023-03-16T00:50:33.509Z,92941.00
2023-03-16T00:51:33.600Z,92941.00
2023-03-16T00:52:33.735Z,92939.00
2023-03-16T00:53:33.711Z,92937.00
2023-03-16T00:54:33.832Z,92935.00
2023-03-16T00:55:33.827Z,92935.00
2023-03-16T00:56:33.882Z,92931.00
2023-03-16T00:57:33.933Z,92933.00
2023-03-16T00:58:33.987Z,92935.00
2023-03-16T00:59:34.039Z,92933.00
2023-03-16T01:00:34.093Z,92931.00
2023-03-16T01:01:34.240Z,92931.00
2023-03-16T01:02:34.192Z,92929.00
2023-03-16T01:03:34.294Z,92927.00
2023-03-16T01:04:34.298Z,92929.00
2023-03-16T01:05:34.364Z,92923.00
2023-03-16T01:06:34.416Z,92921.00
2023-03-16T01:07:34.493Z,92923.00
2023-03-16T01:08:34.546Z,92921.00
2023-03-16T01:09:34.600Z,92921.00
2023-03-16T01:10:34.657Z,92919.00
2023-03-16T01:11:34.721Z,92915.00
2023-03-16T01:12:34.785Z,92913.00
2023-03-16T01:13:34.846Z,92911.00
2023-03-16T01:14:34.936Z,92911.00
2023-03-16T01:15:34.991Z,92911.00
2023-03-16T01:16:35.078Z,92911.00
2023-03-16T01:17:35.200Z,92909.00
2023-03-16T01:18:35.153Z,92911.00
2023-03-16T01:19:35.203Z,92913.00
2023-03-16T01:20:35.284Z,92915.00
2023-03-16T01:21:35.357Z,92915.00
2023-03-16T01:22:35.415Z,92915.00
2023-03-16T01:23:35.464Z,92909.00
2023-03-16T01:24:35.527Z,92913.00
2023-03-16T01:25:35.585Z,92913.00
2023-03-16T01:26:35.651Z,92913.00
2023-03-16T01:27:35.738Z,92909.00
2023-03-16T01:28:35.820Z,92909.00
2023-03-16T01:29:35.904Z,92911.00
2023-03-16T01:30:35.994Z,92913.00
2023-03-16T01:31:35.992Z,92909.00
2023-03-16T01:32:36.076Z,92909.00
2023-03-16T01:33:36.121Z,92909.00
2023-03-16T01:34:36.181Z,92901.00
2023-03-16T01:35:36.322Z,92905.00
2023-03-16T01:36:36.305Z,92903.00
2023-03-16T01:37:36.371Z,92903.00
2023-03-16T01:38:36.448Z,92901.00
2023-03-16T01:39:36.516Z,92903.00
2023-03-16T01:40:36.572Z,92903.00
2023-03-16T01:41:36.645Z,92903.00
2023-03-16T01:42:36.714Z,92911.00
2023-03-16T01:43:36.767Z,92911.00
2023-03-16T01:44:36.824Z,92911.00
2023-03-16T01:45:36.933Z,92911.00
2023-03-16T01:46:36.985Z,92913.00
2023-03-16T01:47:36.977Z,92913.00
2023-03-16T01:48:37.024Z,92913.00
2023-03-16T01:49:37.080Z,92911.00
2023-03-16T01:50:37.135Z,92905.00
2023-03-16T01:51:37.201Z,92911.00
2023-03-16T01:52:37.256Z,92907.00
2023-03-16T01:53:37.304Z,92913.00
2023-03-16T01:54:37.376Z,92911.00
2023-03-16T01:55:37.421Z,92911.00
2023-03-16T01:56:37.475Z,92911.00
2023-03-16T01:57:37.541Z,92913.00
2023-03-16T01:58:37.590Z,92905.00
2023-03-16T01:59:37.650Z,92907.00
2023-03-16T02:00:37.701Z,92905.00
2023-03-16T02:01:37.788Z,92905.00
2023-03-16T02:02:37.811Z,92905.00
2023-03-16T02:03:37.873Z,92909.00
2023-03-16T02:04:37.958Z,92903.00
2023-03-16T02:05:37.971Z,92905.00
2023-03-16T02:06:38.028Z,92899.00
2023-03-16T02:07:38.083Z,92899.00
2023-03-16T02:08:38.120Z,92901.00
2023-03-16T02:09:38.195Z,92901.00
2023-03-16T02:10:38.239Z,92901.00
2023-03-16T02:11:38.303Z,92901.00
2023-03-16T02:12:38.379Z,92901.00
2023-03-16T02:13:38.428Z,92903.00
2023-03-16T02:14:38.473Z,92899.00
2023-03-16T02:15:38.577Z,92905.00
2023-03-16T02:16:38.587Z,92909.00
2023-03-16T02:17:38.640Z,92905.00
2023-03-16T02:18:38.694Z,92907.00
2023-03-16T02:19:38.753Z,92907.00
2023-03-16T02:20:38.806Z,92909.00
2023-03-16T02:21:39.532Z,92911.00
2023-03-16T02:22:38.927Z,92913.00
2023-03-16T02:23:38.986Z,92921.00
2023-03-16T02:24:39.033Z,92913.00
2023-03-16T02:25:39.091Z,92915.00
2023-03-16T02:26:39.216Z,92913.00
2023-03-16T02:27:39.205Z,92911.00
2023-03-16T02:28:39.260Z,92909.00
2023-03-16T02:29:39.308Z,92907.00
2023-03-16T02:30:39.375Z,92907.00
2023-03-16T02:31:39.402Z,92909.00
2023-03-16T02:32:39.554Z,92909.00
2023-03-16T02:33:39.518Z,92909.00
2023-03-16T02:34:39.563Z,92911.00
2023-03-16T02:35:39.638Z,92913.00
2023-03-16T02:36:39.667Z,92911.00
2023-03-16T02:37:39.726Z,92915.00
2023-03-16T02:38:39.770Z,92915.00
2023-03-16T02:39:39.841Z,92913.00
2023-03-16T02:51:40.660Z,92919.00
2023-03-16T02:52:40.722Z,92921.00
2023-03-16T02:53:40.765Z,92923.00
2023-03-16T02:54:40.822Z,92925.00
2023-03-16T02:55:40.879Z,92925.00
2023-03-16T02:56:40.942Z,92923.00
2023-03-16T02:57:40.998Z,92927.00
2023-03-16T02:58:41.059Z,92925.00
2023-03-16T02:59:41.108Z,92927.00
2023-03-16T03:00:41.158Z,92931.00
2023-03-16T03:01:41.218Z,92929.00
2023-03-16T03:02:41.271Z,92929.00
2023-03-16T03:03:41.336Z,92927.00
2023-03-16T03:04:41.403Z,92927.00
2023-03-16T03:05:41.474Z,92927.00
2023-03-16T03:06:41.522Z,92927.00
2023-03-16T03:07:41.573Z,92927.00
2023-03-16T03:08:41.627Z,92931.00
2023-03-16T03:09:41.685Z,92931.00
2023-03-16T03:10:41.739Z,92929.00
2023-03-16T03:11:41.813Z,92929.00
2023-03-16T03:12:41.870Z,92931.00
2023-03-16T03:13:41.921Z,92925.00
2023-03-16T03:14:42.004Z,92925.00
2023-03-16T03:15:42.055Z,92927.00
2023-03-16T03:16:42.128Z,92927.00
2023-03-16T03:17:42.176Z,92929.00
2023-03-16T03:18:42.222Z,92927.00
2023-03-16T03:19:42.277Z,92927.00
2023-03-16T03:20:42.332Z,92923.00
2023-03-16T03:21:42.438Z,92923.00
2023-03-16T03:22:42.473Z,92927.00
2023-03-16T03:23:42.554Z,92923.00
2023-03-16T03:24:42.590Z,92929.00
2023-03-16T03:25:42.656Z,92929.00
2023-03-16T03:26:42.711Z,92929.00
2023-03-16T03:27:42.807Z,92927.00
2023-03-16T03:28:42.845Z,92929.00
2023-03-16T03:29:42.924Z,92927.00
2023-03-16T03:30:42.955Z,92929.00
2023-03-16T03:31:43.071Z,92925.00
2023-03-16T03:32:43.118Z,92925.00
2023-03-16T03:33:43.137Z,92925.00
2023-03-16T03:34:43.188Z,92927.00
2023-03-16T03:35:43.288Z,92929.00
2023-03-16T03:36:43.335Z,92929.00
2023-03-16T03:37:43.373Z,92931.00
2023-03-16T03:38:43.443Z,92931.00
2023-03-16T03:39:43.500Z,92929.00
2023-03-16T03:40:43.565Z,92931.00
2023-03-16T03:41:43.625Z,92927.00
2023-03-16T03:42:43.701Z,92929.00
2023-03-16T03:43:43.744Z,92927.00
2023-03-16T03:44:43.803Z,92927.00
2023-03-16T05:11:50.660Z,92913.00
2023-03-16T05:12:50.752Z,92919.00
2023-03-16T05:13:50.848Z,92919.00
2023-03-16T05:14:50.954Z,92919.00
2023-03-16T05:15:51.079Z,92921.00
2023-03-16T05:16:51.166Z,92921.00
2023-03-16T05:17:51.284Z,92921.00
2023-03-16T05:18:51.397Z,92921.00
2023-03-16T05:19:51.508Z,92923.00
2023-03-16T05:20:51.633Z,92925.00
2023-03-16T05:24:51.966Z,92925.00
2023-03-16T05:25:52.078Z,92923.00
2023-03-16T05:26:52.167Z,92923.00
2023-03-16T05:27:52.281Z,92923.00
2023-03-16T05:28:52.367Z,92923.00
2023-03-16T05:29:52.459Z,92927.00
2023-03-16T05:30:52.620Z,92927.00
2023-03-16T05:31:52.660Z,92925.00
2023-03-16T05:32:52.780Z,92927.00
2023-03-16T05:33:52.886Z,92929.00
2023-03-16T05:34:53.006Z,92927.00
2023-03-16T05:35:53.131Z,92929.00
2023-03-16T05:36:53.177Z,92927.00
2023-03-16T05:37:53.267Z,92925.00
2023-03-16T05:38:53.360Z,92927.00
2023-03-16T05:39:53.475Z,92923.00
2023-03-16T05:40:53.577Z,92923.00
2023-03-16T05:41:53.677Z,92925.00
2023-03-16T05:42:53.766Z,92925.00
2023-03-16T05:43:53.875Z,92927.00
2023-03-16T05:44:53.978Z,92929.00
2023-03-16T05:45:54.092Z,92927.00
2023-03-16T05:46:54.277Z,92927.00
2023-03-16T05:47:54.277Z,92927.00
2023-03-16T05:48:54.375Z,92931.00
2023-03-16T05:49:54.487Z,92929.00
2023-03-16T05:50:54.589Z,92929.00
2023-03-16T05:51:54.687Z,92931.00
2023-03-16T05:52:54.778Z,92931.00
2023-03-16T05:53:54.868Z,92931.00
2023-03-16T05:54:54.938Z,92935.00
2023-03-16T05:55:55.020Z,92931.00
2023-03-16T05:56:55.098Z,92933.00
2023-03-16T05:57:55.187Z,92935.00
2023-03-16T05:58:56.128Z,92937.00
2023-03-16T05:59:55.369Z,92935.00
2023-03-16T06:00:55.483Z,92935.00
2023-03-16T06:01:55.583Z,92939.00
2023-03-16T06:02:55.719Z,92941.00
2023-03-16T06:03:55.836Z,92943.00
2023-03-16T06:04:55.886Z,92943.00
2023-03-16T06:05:55.968Z,92945.00
2023-03-16T06:06:56.040Z,92947.00
2023-03-16T06:07:56.127Z,92948.00
2023-03-16T06:08:56.207Z,92948.00
2023-03-16T06:09:56.283Z,92950.00
2023-03-16T06:10:56.377Z,92954.00
2023-03-16T06:11:56.469Z,92954.00
2023-03-16T06:12:57.786Z,92956.00
2023-03-16T06:13:56.652Z,92958.00
2023-03-16T06:14:56.742Z,92958.00
2023-03-16T06:15:56.875Z,92960.00
2023-03-16T06:16:56.922Z,92962.00
2023-03-16T06:17:57.020Z,92964.00
2023-03-16T06:18:59.655Z,92960.00
2023-03-16T06:19:57.140Z,92962.00
2023-03-16T06:20:57.181Z,92962.00
2023-03-16T06:21:57.250Z,92964.00
2023-03-16T06:22:58.129Z,92968.00
2023-03-16T06:23:57.311Z,92966.00
2023-03-16T06:24:57.377Z,92968.00
2023-03-16T06:25:57.392Z,92964.00
2023-03-16T06:26:57.450Z,92968.00
2023-03-16T06:27:57.471Z,92962.00
2023-03-16T06:28:57.528Z,92964.00
2023-03-16T06:29:57.556Z,92960.00
2023-03-16T06:30:57.607Z,92962.00
2023-03-16T06:31:57.683Z,92962.00
2023-03-16T06:32:57.741Z,92964.00
2023-03-16T06:33:57.722Z,92966.00
2023-03-16T06:34:57.756Z,92968.00
2023-03-16T06:35:57.866Z,92968.00
2023-03-16T06:36:57.829Z,92970.00
2023-03-16T06:37:57.887Z,92970.00
2023-03-16T07:16:00.645Z,92962.00
2023-03-16T07:31:04.057Z,92960.00
2023-03-16T07:32:00.742Z,92956.00
2023-03-16T07:33:00.754Z,92956.00
2023-03-16T07:34:00.759Z,92962.00
2023-03-16T07:35:00.802Z,92960.00
2023-03-16T07:36:00.850Z,92958.00
2023-03-16T07:37:00.860Z,92954.00
2023-03-16T07:38:00.918Z,92954.00
2023-03-16T07:39:00.922Z,92958.00
2023-03-16T07:40:00.942Z,92958.00
2023-03-16T07:41:01.005Z,92950.00
2023-03-16T07:42:01.008Z,92954.00
2023-03-16T07:43:01.053Z,92958.00
2023-03-16T07:44:01.093Z,92958.00
2023-03-16T07:45:01.127Z,92958.00
2023-03-16T07:46:01.213Z,92956.00
2023-03-16T07:47:01.183Z,92954.00
2023-03-16T07:48:01.207Z,92952.00
2023-03-16T07:49:01.240Z,92956.00
2023-03-16T07:50:01.263Z,92956.00
2023-03-16T07:51:01.303Z,92956.00
2023-03-16T07:52:01.329Z,92952.00
2023-03-16T07:53:01.364Z,92948.00
2023-03-16T07:54:01.413Z,92952.00
2023-03-16T07:55:01.427Z,92952.00
2023-03-16T07:56:01.468Z,92952.00
2023-03-16T07:57:01.492Z,92956.00
2023-03-16T07:58:01.541Z,92956.00
2023-03-16T07:59:01.562Z,92952.00
2023-03-16T08:00:01.591Z,92948.00
2023-03-16T08:01:01.624Z,92950.00
2023-03-16T08:02:01.700Z,92950.00
2023-03-16T08:03:01.672Z,92952.00
2023-03-16T08:04:01.798Z,92948.00
2023-03-16T08:05:01.733Z,92947.00
2023-03-16T08:06:01.766Z,92945.00
2023-03-16T08:07:01.852Z,92948.00
2023-03-16T08:08:02.021Z,92948.00
2023-03-16T08:09:02.036Z,92947.00
2023-03-16T08:10:02.133Z,92952.00
2023-03-16T08:11:02.192Z,92952.00
2023-03-16T08:12:02.269Z,92950.00
2023-03-16T08:13:02.419Z,92952.00
2023-03-16T08:14:02.425Z,92952.00
2023-03-16T08:15:02.508Z,92954.00
2023-03-16T08:16:02.646Z,92952.00
2023-03-16T08:17:03.181Z,92948.00
2023-03-16T08:18:02.726Z,92948.00
2023-03-16T08:19:02.783Z,92954.00
2023-03-16T08:20:02.841Z,92954.00
2023-03-16T08:21:02.916Z,92956.00
2023-03-16T08:22:02.997Z,92956.00
2023-03-16T08:23:03.082Z,92950.00
2023-03-16T08:24:03.219Z,92948.00
2023-03-16T08:25:03.203Z,92945.00
2023-03-16T08:26:03.310Z,92941.00
2023-03-16T08:27:03.392Z,92939.00
2023-03-16T08:28:03.482Z,92943.00
2023-03-16T08:29:03.625Z,92939.00
2023-03-16T08:30:03.681Z,92935.00
2023-03-16T08:31:03.801Z,92939.00
2023-03-16T08:32:05.701Z,92937.00
2023-03-16T08:33:03.979Z,92937.00
2023-03-16T08:34:05.605Z,92939.00
2023-03-16T08:35:04.609Z,92933.00
2023-03-16T08:36:04.118Z,92935.00
2023-03-16T08:37:04.085Z,92937.00
2023-03-16T08:38:05.116Z,92937.00
2023-03-16T08:39:07.290Z,92937.00
2023-03-16T08:40:04.200Z,92941.00
2023-03-16T08:41:04.223Z,92933.00
2023-03-16T08:42:04.252Z,92933.00
2023-03-16T08:43:04.306Z,92933.00
2023-03-16T08:44:04.315Z,92935.00
2023-03-16T08:45:04.392Z,92931.00
2023-03-16T08:46:04.440Z,92933.00
2023-03-16T08:47:04.408Z,92933.00
2023-03-16T08:48:04.435Z,92935.00
2023-03-16T08:49:04.466Z,92931.00
2023-03-16T08:50:04.495Z,92931.00
2023-03-16T08:51:04.528Z,92927.00
2023-03-16T08:52:04.564Z,92931.00
2023-03-16T08:53:04.605Z,92929.00
2023-03-16T08:54:04.621Z,92925.00
2023-03-16T08:55:04.650Z,92921.00
2023-03-16T08:56:04.684Z,92919.00
2023-03-16T08:57:04.712Z,92917.00
2023-03-16T08:58:04.754Z,92923.00
2023-03-16T08:59:04.794Z,92919.00
2023-03-16T09:00:04.856Z,92913.00
2023-03-16T09:01:04.833Z,92915.00
2023-03-16T09:02:04.914Z,92915.00
2023-03-16T09:03:04.901Z,92913.00
2023-03-16T09:04:05.758Z,92913.00
2023-03-16T09:05:04.976Z,92913.00
2023-03-16T09:06:04.975Z,92913.00
2023-03-16T09:07:09.328Z,92907.00
2023-03-16T09:08:05.022Z,92911.00
2023-03-16T09:09:05.040Z,92911.00
2023-03-16T09:10:05.063Z,92913.00
2023-03-16T09:11:05.101Z,92911.00
2023-03-16T09:12:05.128Z,92909.00
2023-03-16T09:13:05.700Z,92907.00
2023-03-16T09:14:05.169Z,92917.00
2023-03-16T09:15:05.194Z,92905.00
2023-03-16T09:16:05.263Z,92905.00
2023-03-16T09:17:05.252Z,92905.00
2023-03-16T09:18:05.287Z,92899.00
2023-03-16T09:19:05.315Z,92893.00
2023-03-16T09:20:19.552Z,92897.00
2023-03-16T09:21:06.415Z,92892.00
2023-03-16T09:22:05.444Z,92892.00
2023-03-16T09:23:05.488Z,92892.00
2023-03-16T09:24:05.587Z,92892.00
2023-03-16T09:25:05.571Z,92890.00
2023-03-16T09:26:05.649Z,92886.00
2023-03-16T09:27:06.240Z,92886.00
2023-03-16T09:28:05.710Z,92882.00
2023-03-16T09:29:05.740Z,92886.00
2023-03-16T09:30:05.819Z,92888.00
2023-03-16T09:31:05.952Z,92884.00
2023-03-16T09:32:05.966Z,92880.00
2023-03-16T09:33:06.069Z,92884.00
2023-03-16T09:34:06.073Z,92882.00
2023-03-16T09:35:06.152Z,92882.00
2023-03-16T09:36:06.205Z,92880.00
2023-03-16T09:37:06.229Z,92878.00
2023-03-16T09:38:06.982Z,92870.00
2023-03-16T09:39:06.315Z,92870.00
2023-03-16T09:40:11.779Z,92870.00
2023-03-16T09:41:07.400Z,92864.00
2023-03-16T09:42:06.432Z,92860.00
2023-03-16T09:43:06.458Z,92860.00
2023-03-16T09:44:06.482Z,92858.00
2023-03-16T09:45:06.512Z,92860.00
2023-03-16T09:46:06.593Z,92858.00
2023-03-16T09:47:06.573Z,92856.00
2023-03-16T09:48:06.604Z,92847.00
2023-03-16T09:49:06.637Z,92845.00
2023-03-16T09:50:06.764Z,92847.00
2023-03-16T09:51:06.920Z,92843.00
2023-03-16T09:52:06.886Z,92845.00
2023-03-16T09:53:06.966Z,92841.00
2023-03-16T09:54:07.071Z,92835.00
2023-03-16T09:55:07.162Z,92837.00
2023-03-16T09:56:07.263Z,92835.00
2023-03-16T09:57:07.357Z,92835.00
2023-03-16T09:58:07.451Z,92833.00
2023-03-16T09:59:07.639Z,92831.00
2023-03-16T10:00:07.647Z,92827.00
2023-03-16T10:01:07.808Z,92831.00
2023-03-16T10:02:07.829Z,92829.00
2023-03-16T10:03:07.914Z,92829.00
2023-03-16T10:04:08.025Z,92825.00
2023-03-16T10:05:08.111Z,92823.00
2023-03-16T10:06:08.181Z,92821.00
2023-03-16T10:07:08.265Z,92817.00
2023-03-16T10:08:08.346Z,92817.00
2023-03-16T10:09:08.435Z,92819.00
2023-03-16T10:10:08.518Z,92817.00
2023-03-16T10:11:08.724Z,92816.00
2023-03-16T10:12:08.683Z,92816.00
2023-03-16T10:13:08.775Z,92812.00
2023-03-16T10:14:08.901Z,92814.00
2023-03-16T10:15:09.018Z,92812.00
2023-03-16T10:16:09.059Z,92812.00
2023-03-16T10:17:09.105Z,92812.00
2023-03-16T10:18:09.212Z,92808.00
2023-03-16T10:19:09.270Z,92808.00
2023-03-16T10:20:09.380Z,92806.00
2023-03-16T10:21:09.419Z,92800.00
2023-03-16T10:22:09.479Z,92800.00
2023-03-16T10:23:09.538Z,92798.00
2023-03-16T10:24:09.562Z,92798.00
2023-03-16T10:25:09.633Z,92794.00
2023-03-16T10:26:09.664Z,92796.00
2023-03-16T10:27:09.711Z,92800.00
2023-03-16T10:28:09.747Z,92798.00
2023-03-16T10:29:09.791Z,92786.00
2023-03-16T10:30:09.856Z,92790.00
2023-03-16T10:31:09.925Z,92790.00
2023-03-16T10:32:09.976Z,92786.00
2023-03-16T10:33:10.407Z,92786.00
2023-03-16T10:34:11.739Z,92782.00
2023-03-16T10:35:10.171Z,92780.00
2023-03-16T10:36:10.242Z,92778.00
2023-03-16T10:37:10.276Z,92778.00
2023-03-16T10:38:10.341Z,92778.00
2023-03-16T10:39:10.421Z,92772.00
2023-03-16T10:40:10.450Z,92770.00
2023-03-16T10:41:10.498Z,92774.00
2023-03-16T10:42:10.809Z,92770.00
2023-03-16T10:43:10.605Z,92772.00
2023-03-16T10:44:10.658Z,92770.00
2023-03-16T10:45:10.715Z,92767.00
2023-03-16T10:46:12.502Z,92763.00
2023-03-16T10:47:10.966Z,92767.00
2023-03-16T10:48:10.852Z,92759.00
2023-03-16T10:49:10.891Z,92759.00
2023-03-16T10:50:10.937Z,92753.00
2023-03-16T10:51:10.966Z,92751.00
2023-03-16T10:52:11.012Z,92751.00
2023-03-16T10:53:11.052Z,92749.00
2023-03-16T10:54:11.079Z,92743.00
2023-03-16T10:55:11.131Z,92745.00
2023-03-16T10:56:11.194Z,92741.00
2023-03-16T10:57:11.206Z,92743.00
2023-03-16T10:58:11.249Z,92741.00
2023-03-16T10:59:11.293Z,92739.00
2023-03-16T11:00:11.318Z,92741.00
2023-03-16T11:01:12.264Z,92741.00
2023-03-16T11:02:11.402Z,92735.00
2023-03-16T11:03:11.443Z,92739.00
2023-03-16T11:04:11.546Z,92735.00
2023-03-16T11:05:11.514Z,92729.00
2023-03-16T11:06:11.559Z,92727.00
2023-03-16T11:07:11.603Z,92725.00
2023-03-16T11:08:11.641Z,92721.00
2023-03-16T11:09:11.704Z,92717.00
2023-03-16T11:10:11.708Z,92717.00
2023-03-16T11:11:11.746Z,92717.00
2023-03-16T11:12:11.780Z,92714.00
2023-03-16T11:13:11.814Z,92712.00
2023-03-16T11:14:11.841Z,92708.00
2023-03-16T11:15:20.125Z,92708.00
2023-03-16T11:16:12.960Z,92706.00
2023-03-16T11:17:11.944Z,92702.00
2023-03-16T11:18:11.978Z,92704.00
2023-03-16T11:19:12.010Z,92700.00
2023-03-16T11:20:12.046Z,92696.00
2023-03-16T11:21:12.082Z,92700.00
2023-03-16T11:22:12.090Z,92692.00
2023-03-16T11:23:12.126Z,92688.00
2023-03-16T11:24:12.165Z,92690.00
2023-03-16T11:25:12.192Z,92686.00
2023-03-16T11:26:12.277Z,92686.00
2023-03-16T11:27:12.376Z,92688.00
2023-03-16T11:28:12.486Z,92684.00
2023-03-16T11:29:12.551Z,92682.00
2023-03-16T11:30:12.641Z,92678.00
2023-03-16T11:31:12.786Z,92684.00
2023-03-16T11:32:14.121Z,92676.00
2023-03-16T11:33:12.914Z,92674.00
2023-03-16T11:34:12.973Z,92674.00
2023-03-16T11:35:13.048Z,92672.00
2023-03-16T11:36:13.213Z,92674.00
2023-03-16T11:37:13.253Z,92674.00
2023-03-16T11:38:13.258Z,92674.00
2023-03-16T11:39:13.330Z,92670.00
2023-03-16T11:40:13.383Z,92667.00
2023-03-16T11:41:13.450Z,92667.00
2023-03-16T11:42:13.505Z,92668.00
2023-03-16T11:43:13.565Z,92668.00
2023-03-16T11:44:13.638Z,92665.00
2023-03-16T11:45:13.702Z,92663.00
2023-03-16T11:46:13.862Z,92667.00
2023-03-16T11:47:15.774Z,92663.00
2023-03-16T11:48:13.872Z,92661.00
2023-03-16T11:49:13.930Z,92657.00
2023-03-16T11:50:13.984Z,92653.00
2023-03-16T11:51:14.030Z,92651.00
2023-03-16T11:52:14.084Z,92651.00
2023-03-16T11:53:14.129Z,92653.00
2023-03-16T11:54:14.184Z,92653.00
2023-03-16T11:55:14.221Z,92651.00
2023-03-16T11:56:14.272Z,92653.00
2023-03-16T11:57:14.340Z,92651.00
2023-03-16T11:58:14.365Z,92649.00
2023-03-16T11:59:14.424Z,92645.00
2023-03-16T12:00:14.465Z,92643.00
2023-03-16T12:01:14.508Z,92641.00
2023-03-16T12:02:14.616Z,92637.00
2023-03-16T12:03:14.637Z,92639.00
2023-03-16T12:04:14.663Z,92637.00
2023-03-16T12:05:14.686Z,92635.00
2023-03-16T12:06:22.901Z,92631.00
2023-03-16T12:07:15.743Z,92629.00
2023-03-16T12:08:14.777Z,92629.00
2023-03-16T12:09:14.808Z,92625.00
2023-03-16T12:10:14.931Z,92623.00
2023-03-16T12:11:14.861Z,92621.00
2023-03-16T12:12:14.863Z,92620.00
2023-03-16T12:13:14.898Z,92620.00
2023-03-16T12:14:14.923Z,92620.00
2023-03-16T12:15:14.949Z,92612.00
2023-03-16T12:16:15.008Z,92614.00
2023-03-16T12:17:15.007Z,92610.00
2023-03-16T12:18:15.040Z,92608.00
2023-03-16T12:19:15.064Z,92608.00
2023-03-16T12:20:15.131Z,92604.00
2023-03-16T12:21:15.164Z,92600.00
2023-03-16T12:22:15.183Z,92600.00
2023-03-16T12:23:15.264Z,92590.00
2023-03-16T12:24:15.350Z,92588.00
2023-03-16T12:25:15.432Z,92581.00
2023-03-16T12:26:15.531Z,92583.00
2023-03-16T12:27:16.283Z,92583.00
2023-03-16T12:28:15.699Z,92581.00
2023-03-16T12:29:15.788Z,92579.00
2023-03-16T12:30:15.901Z,92583.00
2023-03-16T12:31:15.997Z,92584.00
2023-03-16T12:32:16.052Z,92583.00
2023-03-16T12:33:16.150Z,92579.00
2023-03-16T12:34:17.186Z,92577.00
2023-03-16T12:35:16.308Z,92579.00
2023-03-16T12:36:16.384Z,92581.00
2023-03-16T12:37:16.491Z,92577.00
2023-03-16T12:38:16.556Z,92583.00
2023-03-16T12:39:16.638Z,92569.00
2023-03-16T12:40:16.738Z,92571.00
2023-03-16T12:41:18.076Z,92569.00
2023-03-16T12:42:16.886Z,92569.00
2023-03-16T12:43:16.951Z,92569.00
2023-03-16T12:44:17.026Z,92571.00
2023-03-16T12:45:17.111Z,92571.00
2023-03-16T12:46:17.195Z,92569.00
2023-03-16T12:47:17.220Z,92567.00
2023-03-16T12:48:17.309Z,92567.00
2023-03-16T12:49:17.356Z,92563.00
2023-03-16T12:50:17.467Z,92561.00
2023-03-16T12:51:17.516Z,92555.00
2023-03-16T12:52:17.603Z,92557.00
2023-03-16T12:53:17.671Z,92555.00
2023-03-16T12:54:17.756Z,92555.00
2023-03-16T12:55:17.822Z,92551.00
2023-03-16T12:56:17.886Z,92553.00
2023-03-16T12:57:17.963Z,92549.00
2023-03-16T12:58:18.034Z,92553.00
2023-03-16T12:59:18.116Z,92557.00
2023-03-16T13:00:18.172Z,92557.00
2023-03-16T13:01:18.279Z,92559.00
2023-03-16T13:02:18.330Z,92557.00
2023-03-16T13:03:18.521Z,92561.00
2023-03-16T13:04:18.499Z,92557.00
2023-03-16T13:05:18.548Z,92557.00
2023-03-16T13:06:18.619Z,92559.00
2023-03-16T13:07:18.691Z,92553.00
2023-03-16T13:08:18.764Z,92553.00
2023-03-16T13:09:18.811Z,92551.00
2023-03-16T13:10:18.902Z,92553.00
2023-03-16T13:11:19.790Z,92551.00
2023-03-16T13:12:19.060Z,92547.00
2023-03-16T13:13:19.125Z,92545.00
2023-03-16T13:14:19.205Z,92547.00
2023-03-16T13:15:19.281Z,92545.00
2023-03-16T13:16:19.428Z,92539.00
2023-03-16T13:17:19.470Z,92537.00
2023-03-16T13:18:19.493Z,92537.00
2023-03-16T13:19:19.555Z,92533.00
2023-03-16T13:20:29.824Z,92529.00
2023-03-16T13:21:20.657Z,92529.00
2023-03-16T13:22:19.724Z,92529.00
2023-03-16T13:23:19.735Z,92531.00
2023-03-16T13:24:19.791Z,92526.00
2023-03-16T13:25:19.807Z,92529.00
2023-03-16T13:26:19.836Z,92531.00
2023-03-16T13:27:19.876Z,92528.00
2023-03-16T13:28:19.914Z,92528.00
2023-03-16T13:29:19.949Z,92529.00
2023-03-16T13:30:20.058Z,92528.00
2023-03-16T13:31:20.055Z,92528.00
2023-03-16T13:32:20.071Z,92531.00
2023-03-16T13:33:20.112Z,92528.00
2023-03-16T13:34:20.253Z,92529.00
2023-03-16T13:35:20.195Z,92531.00
2023-03-16T13:36:20.249Z,92526.00
2023-03-16T13:37:20.311Z,92526.00
2023-03-16T13:38:20.376Z,92526.00
2023-03-16T13:39:20.421Z,92524.00
2023-03-16T13:40:20.494Z,92524.00
2023-03-16T13:41:20.526Z,92520.00
2023-03-16T13:42:20.574Z,92520.00
2023-03-16T13:43:20.611Z,92522.00
2023-03-16T13:44:20.674Z,92526.00
2023-03-16T13:45:20.722Z,92524.00
2023-03-16T13:46:20.801Z,92524.00
2023-03-16T13:47:20.795Z,92524.00
2023-03-16T13:48:20.859Z,92522.00
2023-03-16T13:49:20.893Z,92524.00
2023-03-16T13:50:20.940Z,92522.00
2023-03-16T13:51:21.048Z,92518.00
2023-03-16T13:52:21.075Z,92520.00
2023-03-16T13:53:21.129Z,92520.00
2023-03-16T13:54:21.160Z,92520.00
2023-03-16T13:55:21.289Z,92522.00
2023-03-16T13:56:21.277Z,92522.00
2023-03-16T13:57:21.331Z,92518.00
2023-03-16T13:58:21.407Z,92520.00
2023-03-16T13:59:21.457Z,92518.00
2023-03-16T14:00:21.509Z,92518.00
2023-03-16T14:01:21.601Z,92518.00
2023-03-16T14:02:21.753Z,92520.00
2023-03-16T14:03:21.733Z,92516.00
2023-03-16T14:04:21.817Z,92516.00
2023-03-16T14:05:21.870Z,92518.00
2023-03-16T14:06:21.924Z,92520.00
2023-03-16T14:07:21.973Z,92518.00
2023-03-16T14:08:22.047Z,92518.00
2023-03-16T14:09:22.100Z,92516.00
2023-03-16T14:10:22.160Z,92514.00
2023-03-16T14:11:22.184Z,92512.00
2023-03-16T14:12:22.221Z,92514.00
2023-03-16T14:13:22.283Z,92514.00
2023-03-16T14:14:22.328Z,92514.00
2023-03-16T14:15:22.391Z,92514.00
2023-03-16T14:16:22.510Z,92512.00